Terminal Aerodrome Forecast
Issued by NWS Riverton, WY

Home | Current Version | Previous Version | Text Only | Print | Product List | Glossary On
Versions: 1 2 3 4 5 6 7 8 9 10 11 12
631
FTUS45 KRIW 081820 AAA
TAFRIW
TAF AMD
KRIW 081820Z 0818/0918 VRB06KT P6SM FEW090 SCT250 WS005/25030KT
     FM090400 20006KT P6SM SKC
     FM091000 VRB04KT P6SM VCFG SKC
     FM091600 10005KT P6SM FEW250=

USA.gov is the U.S. government's official web portal to all federal, state and local government web resources and services.